Adamant, Vermont
Current Conditions -  °F | °C
As of 12:51 AM on Thursday 29 Jan 2015 (Local Time) from KMPV Reporting Station
Clear Clear  
Wind Chill: -5°   Ceiling: Unl
Heat Index: -5°   Visibility: 10mi
Dew Point: -9°   Wind: 3mph
Humidity: 83%   Direction: 180°S
Pressure: 30.27"   Gusts: NA
Location:  44.33°N, 72.5°W
Report Text: KMPV 290551Z AUTO 18003KT 10SM CLR M21/M23 A3027 RMK AO2 SLP285 T12061228 11150 21217 51015
Loading
Personal Weather Stations






























Interactive Weather Map New forecast layout! Learn more

10-Day Weather Forecast

Advertisements
Track Severe Weather on mobile